RJDA(METAR)
05/30 17:00
METAR RJDA 300800Z VRB02KT 9999 FEW060 SCT100 BKN/// 23/14 Q1015 RMK
2SC060 4AC100 A3000=
戻る
トップページへ戻る
IMOC Co,.Ltd.